createdAt,value
2022-10-06T00:02:39.551Z,71.07
2022-10-06T00:05:42.637Z,71.38
2022-10-06T00:08:46.210Z,71.14
2022-10-06T00:11:50.178Z,71.28
2022-10-06T00:14:52.893Z,71.51
2022-10-06T00:17:56.215Z,71.69
2022-10-06T00:21:00.311Z,71.85
2022-10-06T00:24:02.867Z,71.90
2022-10-06T00:27:06.892Z,70.86
2022-10-06T00:30:12.209Z,71.70
2022-10-06T00:33:17.904Z,72.10
2022-10-06T00:36:21.244Z,72.35
2022-10-06T00:39:23.788Z,71.84
2022-10-06T00:42:30.623Z,71.94
2022-10-06T00:45:37.786Z,71.73
2022-10-06T00:48:42.116Z,71.77
2022-10-06T00:51:48.889Z,71.57
2022-10-06T00:54:52.286Z,71.29
2022-10-06T00:57:56.867Z,70.92
2022-10-06T01:01:00.534Z,71.03
2022-10-06T01:04:10.429Z,71.28
2022-10-06T01:07:13.145Z,71.68
2022-10-06T01:10:15.881Z,71.27
2022-10-06T01:13:20.414Z,70.74
2022-10-06T01:16:26.984Z,70.79
2022-10-06T01:19:41.982Z,71.12
2022-10-06T01:22:48.520Z,71.18
2022-10-06T01:25:51.649Z,71.37
2022-10-06T01:28:54.453Z,71.42
2022-10-06T01:31:57.203Z,71.06
2022-10-06T01:34:59.773Z,71.51
2022-10-06T01:38:03.831Z,71.66
2022-10-06T01:41:06.830Z,72.01
2022-10-06T01:44:09.367Z,71.45
2022-10-06T01:47:12.077Z,71.97
2022-10-06T01:50:14.896Z,72.19
2022-10-06T01:53:19.190Z,72.41
2022-10-06T01:56:22.046Z,72.14
2022-10-06T01:59:25.447Z,72.69
2022-10-06T02:02:31.741Z,72.45
2022-10-06T02:05:34.432Z,73.24
2022-10-06T02:08:38.633Z,73.35
2022-10-06T02:11:41.232Z,73.01
2022-10-06T02:14:44.191Z,73.28
2022-10-06T02:17:46.804Z,73.96
2022-10-06T02:20:49.537Z,73.46
2022-10-06T02:23:53.556Z,73.81
2022-10-06T02:26:56.085Z,73.81
2022-10-06T02:29:58.777Z,73.74
2022-10-06T02:33:01.331Z,74.19
2022-10-06T02:36:04.616Z,74.09
2022-10-06T02:39:08.506Z,73.56
2022-10-06T02:42:11.264Z,73.62
2022-10-06T02:45:13.998Z,73.89
2022-10-06T02:48:16.536Z,73.67
2022-10-06T02:51:21.193Z,73.21
2022-10-06T02:54:25.084Z,73.54
2022-10-06T02:57:27.783Z,73.74
2022-10-06T03:00:30.551Z,73.68
2022-10-06T03:03:34.921Z,73.87
2022-10-06T03:06:37.654Z,73.95
2022-10-06T03:09:41.586Z,74.05
2022-10-06T03:12:44.271Z,74.35
2022-10-06T03:15:47.024Z,74.88
2022-10-06T03:18:51.258Z,74.82
2022-10-06T03:21:53.932Z,75.62
2022-10-06T03:24:58.085Z,76.46
2022-10-06T03:28:01.042Z,77.38
2022-10-06T03:31:10.069Z,77.70
2022-10-06T03:34:13.526Z,79.12
2022-10-06T03:37:16.228Z,78.43
2022-10-06T03:40:20.301Z,78.07
2022-10-06T03:43:22.850Z,78.71
2022-10-06T03:46:27.718Z,80.28
2022-10-06T03:49:30.318Z,80.09
2022-10-06T03:52:33.037Z,79.87
2022-10-06T03:55:37.092Z,79.66
2022-10-06T03:58:41.576Z,79.85
2022-10-06T04:01:46.117Z,80.18
2022-10-06T04:04:48.694Z,79.96
2022-10-06T04:07:51.234Z,79.66
2022-10-06T04:10:55.160Z,79.11
2022-10-06T04:14:00.544Z,78.54
2022-10-06T04:17:03.160Z,78.34
2022-10-06T04:20:06.456Z,77.81
2022-10-06T04:23:10.096Z,75.94
2022-10-06T04:26:16.392Z,73.88
2022-10-06T04:29:19.210Z,71.56
2022-10-06T04:32:21.757Z,72.67
2022-10-06T04:35:24.551Z,71.11
2022-10-06T04:38:29.390Z,72.15
2022-10-06T04:41:35.028Z,72.56
2022-10-06T04:44:37.858Z,71.69
2022-10-06T04:47:41.111Z,69.25
2022-10-06T04:50:43.833Z,69.48
2022-10-06T04:53:46.702Z,69.46
2022-10-06T04:56:50.778Z,68.98
2022-10-06T05:00:14.758Z,68.09
2022-10-06T05:03:17.699Z,68.03
2022-10-06T05:06:22.761Z,67.66
2022-10-06T05:09:25.322Z,67.04
2022-10-06T05:12:31.375Z,67.78
2022-10-06T05:15:33.944Z,66.11
2022-10-06T05:18:37.082Z,66.21
2022-10-06T05:21:39.805Z,63.39
2022-10-06T05:24:42.558Z,63.80
2022-10-06T05:27:46.473Z,63.66
2022-10-06T05:31:00.181Z,64.22
2022-10-06T05:34:02.974Z,64.30
2022-10-06T05:37:05.544Z,64.10
2022-10-06T05:40:09.007Z,64.82
2022-10-06T05:43:12.929Z,63.83
2022-10-06T05:46:20.411Z,63.98
2022-10-06T05:49:23.080Z,64.41
2022-10-06T05:52:25.770Z,63.40
2022-10-06T05:55:28.332Z,63.38
2022-10-06T05:58:32.572Z,64.24
2022-10-06T06:01:37.107Z,64.60
2022-10-06T06:04:39.771Z,64.80
2022-10-06T06:07:42.448Z,64.02
2022-10-06T06:10:45.005Z,64.79
2022-10-06T06:13:49.028Z,65.05
2022-10-06T06:16:50.623Z,64.92
2022-10-06T06:19:53.353Z,64.76
2022-10-06T06:22:55.927Z,64.89
2022-10-06T06:26:02.470Z,64.78
2022-10-06T06:29:07.066Z,63.71
2022-10-06T06:32:09.934Z,63.88
2022-10-06T06:35:12.850Z,62.47
2022-10-06T06:38:15.519Z,61.52
2022-10-06T06:41:20.239Z,60.88
2022-10-06T06:44:24.982Z,60.13
2022-10-06T06:47:27.541Z,60.33
2022-10-06T06:50:30.235Z,60.18
2022-10-06T06:53:33.104Z,61.00
2022-10-06T06:56:36.521Z,58.61
2022-10-06T06:59:40.407Z,58.13
2022-10-06T07:02:43.146Z,58.21
2022-10-06T07:05:46.754Z,57.64
2022-10-06T07:08:50.561Z,57.03
2022-10-06T07:11:53.127Z,54.23
2022-10-06T07:15:14.701Z,54.58
2022-10-06T07:18:34.976Z,54.32
2022-10-06T07:21:55.209Z,55.74
2022-10-06T07:25:11.464Z,54.56
2022-10-06T07:28:17.093Z,54.60
2022-10-06T07:31:21.302Z,56.01
2022-10-06T07:34:30.252Z,55.75
2022-10-06T07:37:35.222Z,56.24
2022-10-06T07:40:42.737Z,56.48
2022-10-06T07:43:58.250Z,55.29
2022-10-06T07:47:02.488Z,56.51
2022-10-06T07:50:05.888Z,56.22
2022-10-06T07:53:09.780Z,57.04
2022-10-06T07:56:15.756Z,58.01
2022-10-06T07:59:30.057Z,56.47
2022-10-06T08:02:35.824Z,55.50
2022-10-06T08:05:40.224Z,57.24
2022-10-06T08:08:44.004Z,56.80
2022-10-06T08:11:48.907Z,56.23
2022-10-06T08:14:51.785Z,55.81
2022-10-06T08:17:56.146Z,56.30
2022-10-06T08:20:59.514Z,56.16
2022-10-06T08:24:02.932Z,55.67
2022-10-06T08:27:05.632Z,53.32
2022-10-06T08:30:09.151Z,54.98
2022-10-06T08:33:13.196Z,54.64
2022-10-06T08:36:18.486Z,53.62
2022-10-06T08:39:21.214Z,54.64
2022-10-06T08:42:30.418Z,52.82
2022-10-06T08:45:38.737Z,52.46
2022-10-06T08:48:43.488Z,53.03
2022-10-06T08:51:56.595Z,53.53
2022-10-06T08:55:08.558Z,52.61
2022-10-06T08:58:33.259Z,52.86
2022-10-06T09:01:42.584Z,52.60
2022-10-06T09:04:48.617Z,52.07
2022-10-06T09:08:05.297Z,51.62
2022-10-06T09:11:35.833Z,51.05
2022-10-06T09:14:43.262Z,51.24
2022-10-06T09:17:51.040Z,50.72
2022-10-06T09:20:58.282Z,50.31
2022-10-06T09:24:07.025Z,50.47
2022-10-06T09:27:18.503Z,49.92
2022-10-06T09:30:21.328Z,49.15
2022-10-06T09:33:25.504Z,49.54
2022-10-06T09:36:29.817Z,49.55
2022-10-06T09:39:36.742Z,48.45
2022-10-06T09:42:45.586Z,47.69
2022-10-06T09:45:48.239Z,45.24
2022-10-06T09:49:07.293Z,44.55
2022-10-06T09:52:16.339Z,43.02
2022-10-06T09:55:23.043Z,41.64
2022-10-06T09:58:31.402Z,41.62
2022-10-06T10:01:34.191Z,39.81
2022-10-06T10:04:41.431Z,40.00
2022-10-06T10:07:48.223Z,40.31
2022-10-06T10:10:51.780Z,39.58
2022-10-06T10:13:54.722Z,41.22
2022-10-06T10:16:57.335Z,41.05
2022-10-06T10:20:02.820Z,39.54
2022-10-06T10:23:20.400Z,39.71
2022-10-06T10:26:32.779Z,39.23
2022-10-06T10:29:51.907Z,38.73
2022-10-06T10:33:01.531Z,40.54
2022-10-06T10:36:07.718Z,38.79
2022-10-06T10:39:19.503Z,39.05
2022-10-06T10:42:30.814Z,37.20
2022-10-06T10:45:35.131Z,37.62
2022-10-06T10:48:43.160Z,37.01
2022-10-06T10:51:50.912Z,37.88
2022-10-06T10:55:18.650Z,36.52
2022-10-06T10:58:28.958Z,35.61
2022-10-06T11:01:37.358Z,36.18
2022-10-06T11:04:44.446Z,37.11
2022-10-06T11:07:54.617Z,36.51
2022-10-06T11:11:01.468Z,36.94
2022-10-06T11:14:10.000Z,37.17
2022-10-06T11:17:25.168Z,36.18
2022-10-06T11:20:44.012Z,35.94
2022-10-06T11:23:54.971Z,36.17
2022-10-06T11:27:19.028Z,36.30
2022-10-06T11:30:26.331Z,36.30
2022-10-06T11:33:35.870Z,35.47
2022-10-06T11:36:47.041Z,35.82
2022-10-06T11:39:59.131Z,34.52
2022-10-06T11:43:10.560Z,34.75
2022-10-06T11:46:31.122Z,34.59
2022-10-06T11:49:53.416Z,34.66
2022-10-06T11:52:56.316Z,35.51
2022-10-06T11:56:32.518Z,35.64
2022-10-06T11:59:36.439Z,35.00
2022-10-06T12:02:41.190Z,36.18
2022-10-06T12:05:59.184Z,37.05
2022-10-06T12:09:01.902Z,38.01
2022-10-06T12:13:05.459Z,38.58
2022-10-06T12:19:56.425Z,39.13
2022-10-06T12:23:05.529Z,38.18
2022-10-06T12:26:21.619Z,36.43
2022-10-06T12:29:43.686Z,35.96
2022-10-06T12:32:52.538Z,36.50
2022-10-06T12:36:02.590Z,36.40
2022-10-06T12:39:21.482Z,38.41
2022-10-06T12:42:29.361Z,37.43
2022-10-06T12:45:32.197Z,36.85
2022-10-06T12:48:45.232Z,37.32
2022-10-06T12:51:48.528Z,36.52
2022-10-06T12:55:04.694Z,36.62
2022-10-06T12:58:16.977Z,34.98
2022-10-06T13:01:19.797Z,36.11
2022-10-06T13:04:35.528Z,36.45
2022-10-06T13:07:56.972Z,36.73
2022-10-06T13:11:13.653Z,36.53
2022-10-06T13:14:17.254Z,37.93
2022-10-06T13:17:19.990Z,37.33
2022-10-06T13:20:35.563Z,37.62
2022-10-06T13:23:40.310Z,38.29
2022-10-06T13:26:43.104Z,38.92
2022-10-06T13:29:45.684Z,38.73
2022-10-06T13:32:53.135Z,38.14
2022-10-06T13:35:59.342Z,38.42
2022-10-06T13:39:05.003Z,38.79
2022-10-06T13:42:11.657Z,39.59
2022-10-06T13:45:16.130Z,39.92
2022-10-06T13:48:22.364Z,39.43
2022-10-06T13:51:30.549Z,39.45
2022-10-06T13:54:42.141Z,39.27
2022-10-06T13:57:46.326Z,39.69
2022-10-06T14:00:56.002Z,39.56
2022-10-06T14:04:12.810Z,39.79
2022-10-06T14:07:18.288Z,40.00
2022-10-06T14:13:39.143Z,40.11
2022-10-06T14:16:48.583Z,39.93
2022-10-06T14:19:52.095Z,40.16
2022-10-06T14:22:56.055Z,40.76
2022-10-06T14:25:58.779Z,41.01
2022-10-06T14:29:01.709Z,41.87
2022-10-06T14:32:08.985Z,41.52
2022-10-06T14:35:12.669Z,40.93
2022-10-06T14:38:16.702Z,41.37
2022-10-06T14:41:24.527Z,40.38
2022-10-06T14:44:27.136Z,40.43
2022-10-06T14:47:30.045Z,41.87
2022-10-06T14:50:34.316Z,41.45
2022-10-06T14:53:39.460Z,41.50
2022-10-06T14:56:43.098Z,41.61
2022-10-06T14:59:45.741Z,41.74
2022-10-06T15:02:48.909Z,42.59
2022-10-06T15:06:09.297Z,42.12
2022-10-06T15:09:13.435Z,41.39
2022-10-06T15:12:16.129Z,41.26
2022-10-06T15:15:18.798Z,41.67
2022-10-06T15:18:21.560Z,42.41
2022-10-06T15:21:24.306Z,42.93
2022-10-06T15:24:28.368Z,43.06
2022-10-06T15:27:48.497Z,43.79
2022-10-06T15:30:51.087Z,44.32
2022-10-06T15:33:54.887Z,44.55
2022-10-06T15:36:58.697Z,44.29
2022-10-06T15:40:05.485Z,44.58
2022-10-06T15:43:08.199Z,44.96
2022-10-06T15:46:13.046Z,46.29
2022-10-06T15:49:17.380Z,45.83
2022-10-06T15:52:22.901Z,45.14
2022-10-06T15:55:26.835Z,46.05
2022-10-06T15:58:29.399Z,46.59
2022-10-06T16:01:43.512Z,47.18
2022-10-06T16:04:57.144Z,47.47
2022-10-06T16:07:59.813Z,48.52
2022-10-06T16:11:04.174Z,48.02
2022-10-06T16:14:07.969Z,48.82
2022-10-06T16:17:11.891Z,49.17
2022-10-06T16:20:16.628Z,49.39
2022-10-06T16:23:20.472Z,49.74
2022-10-06T16:26:26.234Z,50.48
2022-10-06T16:29:29.431Z,50.24
2022-10-06T16:32:32.033Z,50.95
2022-10-06T16:35:34.706Z,51.21
2022-10-06T16:38:37.291Z,51.46
2022-10-06T16:41:41.497Z,51.69
2022-10-06T16:44:44.201Z,51.56
2022-10-06T16:47:46.806Z,52.20
2022-10-06T16:50:49.495Z,52.49
2022-10-06T16:53:54.783Z,53.31
2022-10-06T16:57:01.575Z,54.28
2022-10-06T17:00:05.807Z,54.35
2022-10-06T17:03:08.386Z,54.62
2022-10-06T17:06:14.249Z,54.76
2022-10-06T17:09:18.842Z,55.33
2022-10-06T17:12:22.740Z,55.89
2022-10-06T17:15:26.184Z,56.70
2022-10-06T17:18:31.192Z,56.91
2022-10-06T17:21:45.594Z,56.96
2022-10-06T17:24:49.754Z,57.35
2022-10-06T17:27:53.645Z,57.64
2022-10-06T17:30:59.331Z,58.14
2022-10-06T17:34:03.225Z,58.37
2022-10-06T17:37:05.768Z,58.57
2022-10-06T17:40:09.124Z,58.89
2022-10-06T17:43:13.012Z,59.35
2022-10-06T17:46:19.033Z,59.79
2022-10-06T17:49:24.003Z,59.24
2022-10-06T17:52:26.818Z,59.63
2022-10-06T17:55:29.803Z,59.69
2022-10-06T17:58:35.201Z,59.66
2022-10-06T18:01:38.404Z,60.06
2022-10-06T18:04:41.120Z,59.84
2022-10-06T18:07:43.649Z,60.24
2022-10-06T18:11:06.199Z,60.33
2022-10-06T18:14:12.228Z,60.72
2022-10-06T18:17:15.210Z,61.14
2022-10-06T18:20:18.063Z,61.19
2022-10-06T18:23:20.592Z,61.16
2022-10-06T18:26:23.280Z,60.76
2022-10-06T18:29:30.180Z,61.70
2022-10-06T18:36:14.663Z,61.81
2022-10-06T18:39:18.196Z,61.79
2022-10-06T18:42:20.926Z,61.39
2022-10-06T18:45:42.746Z,62.86
2022-10-06T18:48:58.654Z,62.41
2022-10-06T18:52:01.592Z,62.61
2022-10-06T18:55:04.348Z,62.58
2022-10-06T18:58:07.063Z,62.86
2022-10-06T19:01:12.479Z,63.12
2022-10-06T19:04:18.384Z,62.66
2022-10-06T19:07:20.961Z,63.42
2022-10-06T19:10:23.503Z,63.77
2022-10-06T19:13:26.080Z,63.75
2022-10-06T19:16:29.996Z,63.85
2022-10-06T19:19:34.080Z,64.54
2022-10-06T19:22:37.003Z,64.50
2022-10-06T19:25:39.564Z,64.14
2022-10-06T19:28:42.406Z,63.59
2022-10-06T19:31:47.888Z,65.20
2022-10-06T19:34:50.566Z,64.71
2022-10-06T19:37:53.256Z,64.72
2022-10-06T19:41:16.484Z,65.25
2022-10-06T19:44:18.267Z,65.22
2022-10-06T19:47:22.177Z,65.29
2022-10-06T19:50:25.261Z,65.17
2022-10-06T19:53:27.989Z,65.49
2022-10-06T19:56:32.993Z,65.51
2022-10-06T19:59:36.761Z,65.56
2022-10-06T20:02:42.872Z,65.85
2022-10-06T20:05:46.195Z,65.51
2022-10-06T20:08:48.866Z,65.57
2022-10-06T20:11:52.553Z,66.03
2022-10-06T20:14:55.250Z,66.29
2022-10-06T20:17:59.125Z,66.26
2022-10-06T20:21:01.804Z,65.97
2022-10-06T20:24:07.104Z,65.96
2022-10-06T20:27:10.177Z,66.07
2022-10-06T20:30:13.449Z,66.77
2022-10-06T20:33:17.525Z,66.17
2022-10-06T20:36:20.645Z,66.56
2022-10-06T20:39:40.777Z,66.10
2022-10-06T20:42:47.162Z,66.07
2022-10-06T20:45:50.208Z,66.65
2022-10-06T20:48:54.152Z,66.67
2022-10-06T20:51:56.850Z,66.38
2022-10-06T20:54:59.401Z,66.22
2022-10-06T20:58:02.075Z,67.22
2022-10-06T21:01:06.434Z,66.86
2022-10-06T21:04:10.716Z,67.07
2022-10-06T21:07:13.463Z,66.78
2022-10-06T21:10:16.288Z,67.41
2022-10-06T21:13:19.015Z,66.95
2022-10-06T21:16:24.231Z,67.38
2022-10-06T21:19:29.883Z,67.24
2022-10-06T21:22:32.601Z,67.24
2022-10-06T21:25:37.749Z,67.40
2022-10-06T21:28:41.252Z,67.54
2022-10-06T21:31:44.639Z,68.35
2022-10-06T21:34:48.690Z,68.52
2022-10-06T21:37:51.400Z,68.10
2022-10-06T21:40:54.414Z,68.38
2022-10-06T21:43:58.867Z,68.31
2022-10-06T21:47:02.674Z,68.35
2022-10-06T21:50:07.701Z,68.91
2022-10-06T21:53:10.497Z,68.32
2022-10-06T21:56:13.845Z,68.54
2022-10-06T21:59:16.686Z,68.62
2022-10-06T22:02:19.520Z,68.69
2022-10-06T22:05:23.475Z,68.48
2022-10-06T22:08:26.276Z,68.80
2022-10-06T22:11:31.061Z,68.76
2022-10-06T22:14:33.894Z,68.41
2022-10-06T22:17:36.887Z,68.25
2022-10-06T22:20:40.846Z,68.71
2022-10-06T22:23:45.165Z,69.16
2022-10-06T22:26:48.763Z,69.35
2022-10-06T22:29:51.559Z,69.05
2022-10-06T22:32:54.718Z,68.63
2022-10-06T22:35:58.742Z,68.91
2022-10-06T22:39:02.226Z,69.30
2022-10-06T22:42:05.189Z,70.01
2022-10-06T22:45:08.322Z,69.93
2022-10-06T22:48:11.048Z,69.24
2022-10-06T22:51:14.978Z,69.88
2022-10-06T22:54:20.034Z,70.08
2022-10-06T22:57:22.633Z,70.00
2022-10-06T23:00:27.948Z,69.78
2022-10-06T23:03:30.939Z,69.85
2022-10-06T23:06:35.388Z,69.59
2022-10-06T23:09:38.107Z,69.67
2022-10-06T23:12:40.884Z,70.14
2022-10-06T23:15:44.241Z,69.72
2022-10-06T23:18:47.347Z,70.16
2022-10-06T23:21:51.396Z,70.75
2022-10-06T23:24:54.486Z,69.88
2022-10-06T23:27:57.138Z,69.68
2022-10-06T23:30:59.975Z,70.14
2022-10-06T23:34:02.569Z,70.37
2022-10-06T23:37:06.666Z,69.65
2022-10-06T23:40:10.320Z,69.90
2022-10-06T23:43:12.932Z,70.25
2022-10-06T23:46:16.023Z,70.07
2022-10-06T23:49:18.670Z,70.18
2022-10-06T23:52:22.713Z,70.76
2022-10-06T23:55:25.746Z,70.29
2022-10-06T23:58:28.792Z,70.35
